createdAt,value
2023-02-05T00:00:58.356Z,104215.19
2023-02-05T00:03:26.278Z,104223.16
2023-02-05T00:05:55.591Z,104224.94
2023-02-05T00:08:23.504Z,104229.38
2023-02-05T00:10:52.885Z,104223.16
2023-02-05T00:13:20.791Z,104222.19
2023-02-05T00:15:48.654Z,104237.34
2023-02-05T00:18:16.621Z,104231.13
2023-02-05T00:20:44.478Z,104234.66
2023-02-05T00:23:13.755Z,104227.53
2023-02-05T00:25:41.666Z,104242.66
2023-02-05T00:28:09.605Z,104227.53
2023-02-05T00:30:37.577Z,104234.63
2023-02-05T00:33:05.563Z,104231.06
2023-02-05T00:35:33.658Z,104235.50
2023-02-05T00:38:01.680Z,104233.72
2023-02-05T00:40:30.998Z,104236.38
2023-02-05T00:42:58.876Z,104239.94
2023-02-05T00:45:32.357Z,104242.59
2023-02-05T00:48:00.583Z,104231.00
2023-02-05T00:50:28.492Z,104235.44
2023-02-05T00:52:56.415Z,104239.03
2023-02-05T00:55:24.338Z,104246.16
2023-02-05T00:57:53.631Z,104253.28
2023-02-05T01:00:21.838Z,104247.06
2023-02-05T01:02:49.980Z,104268.38
2023-02-05T01:05:18.068Z,104275.53
2023-02-05T01:07:45.966Z,104274.59
2023-02-05T01:10:13.822Z,104283.53
2023-02-05T01:12:41.707Z,104300.47
2023-02-05T01:15:11.519Z,104303.16
2023-02-05T01:17:39.392Z,104308.53
2023-02-05T01:20:08.437Z,104256.78
2023-02-05T01:22:36.353Z,104303.19
2023-02-05T01:25:04.294Z,104304.06
2023-02-05T01:27:33.586Z,104301.44
2023-02-05T01:30:01.488Z,104295.22
2023-02-05T01:32:30.787Z,104297.91
2023-02-05T01:34:58.656Z,104295.19
2023-02-05T01:37:26.597Z,104294.31
2023-02-05T01:39:54.451Z,104291.63
2023-02-05T01:42:23.187Z,104302.28
2023-02-05T01:45:32.807Z,104307.63
2023-02-05T01:48:02.938Z,104308.50
2023-02-05T01:50:32.596Z,104279.09
2023-02-05T01:53:01.373Z,104292.50
2023-02-05T01:55:29.258Z,104305.78
2023-02-05T01:57:57.191Z,104307.56
2023-02-05T02:00:25.133Z,104296.00
2023-02-05T02:02:53.038Z,104293.31
2023-02-05T02:05:22.458Z,104286.16
2023-02-05T02:07:50.376Z,104286.13
2023-02-05T02:10:18.812Z,104305.72
2023-02-05T02:12:47.552Z,104308.38
2023-02-05T02:15:16.940Z,104297.66
2023-02-05T02:17:46.931Z,104301.22
2023-02-05T02:20:15.933Z,104307.44
2023-02-05T02:22:56.673Z,104303.81
2023-02-05T02:25:35.339Z,104317.06
2023-02-05T02:28:05.485Z,104321.44
2023-02-05T02:30:35.496Z,104308.88
2023-02-05T02:33:07.106Z,104313.28
2023-02-05T02:35:40.490Z,104308.72
2023-02-05T02:38:11.457Z,104290.81
2023-02-05T02:40:41.788Z,104288.97
2023-02-05T02:43:12.217Z,104320.88
2023-02-05T02:45:44.643Z,104318.94
2023-02-05T02:48:12.592Z,104334.91
2023-02-05T02:50:42.659Z,104317.97
2023-02-05T02:53:12.726Z,104324.94
2023-02-05T02:55:43.694Z,104333.69
2023-02-05T02:58:16.695Z,104342.38
2023-02-05T03:00:45.280Z,104335.97
2023-02-05T03:03:13.723Z,104334.06
2023-02-05T03:05:41.895Z,104361.50
2023-02-05T03:08:13.688Z,104354.25
2023-02-05T03:10:42.736Z,104361.16
2023-02-05T03:13:11.144Z,104369.00
2023-02-05T03:15:40.610Z,104379.56
2023-02-05T03:18:08.560Z,104376.84
2023-02-05T03:20:38.209Z,104375.75
2023-02-05T03:23:06.106Z,104398.94
2023-02-05T03:25:34.154Z,104392.69
2023-02-05T03:28:02.224Z,104391.75
2023-02-05T03:30:31.963Z,104395.28
2023-02-05T03:33:04.290Z,104404.13
2023-02-05T03:35:34.708Z,104412.06
2023-02-05T03:38:12.634Z,104401.22
2023-02-05T03:40:44.881Z,104404.84
2023-02-05T03:43:14.715Z,104401.28
2023-02-05T03:45:46.996Z,104408.28
2023-02-05T03:48:22.396Z,104403.88
2023-02-05T03:50:53.261Z,104425.03
2023-02-05T03:53:23.539Z,104423.28
2023-02-05T03:55:52.160Z,104391.00
2023-02-05T03:58:20.928Z,104428.50
2023-02-05T04:00:48.882Z,104434.69
2023-02-05T04:03:18.115Z,104424.75
2023-02-05T04:05:46.065Z,104440.81
2023-02-05T04:08:13.905Z,104445.28
2023-02-05T04:10:41.784Z,104451.44
2023-02-05T04:13:09.679Z,104467.38
2023-02-05T04:15:37.543Z,104477.09
2023-02-05T04:18:05.532Z,104471.84
2023-02-05T04:20:34.809Z,104486.88
2023-02-05T04:23:02.696Z,104470.84
2023-02-05T04:25:30.566Z,104480.63
2023-02-05T04:27:58.499Z,104485.03
2023-02-05T04:30:26.387Z,104491.28
2023-02-05T04:32:54.287Z,104501.00
2023-02-05T04:35:22.174Z,104498.34
2023-02-05T04:37:51.414Z,104493.03
2023-02-05T04:40:19.510Z,104496.56
2023-02-05T04:42:47.429Z,104510.69
2023-02-05T04:45:15.341Z,104513.41
2023-02-05T04:47:43.188Z,104506.28
2023-02-05T04:50:11.474Z,104497.44
2023-02-05T04:52:39.318Z,104501.91
2023-02-05T04:55:09.230Z,104502.81
2023-02-05T04:57:37.803Z,104490.44
2023-02-05T05:00:06.322Z,104497.50
2023-02-05T05:02:34.224Z,104493.09
2023-02-05T05:05:02.162Z,104502.81
2023-02-05T05:07:31.106Z,104503.72
2023-02-05T05:09:59.042Z,104499.25
2023-02-05T05:12:28.337Z,104509.91
2023-02-05T05:14:56.211Z,104514.34
2023-02-05T05:17:24.353Z,104514.28
2023-02-05T05:19:52.254Z,104512.50
2023-02-05T05:22:20.135Z,104522.16
2023-02-05T05:24:48.022Z,104523.88
2023-02-05T05:27:16.654Z,104529.22
2023-02-05T05:29:46.510Z,104528.25
2023-02-05T05:32:14.461Z,104518.38
2023-02-05T05:34:42.347Z,104536.94
2023-02-05T05:37:10.243Z,104534.19
2023-02-05T05:39:55.542Z,104549.19
2023-02-05T05:42:39.844Z,104546.38
2023-02-05T05:45:09.826Z,104554.31
2023-02-05T05:47:37.733Z,104564.03
2023-02-05T05:50:06.176Z,104566.66
2023-02-05T05:52:34.100Z,104579.00
2023-02-05T05:55:02.008Z,104578.88
2023-02-05T05:57:29.941Z,104575.13
2023-02-05T05:59:57.897Z,104587.56
2023-02-05T06:02:27.316Z,104580.34
2023-02-05T06:04:55.194Z,104588.28
2023-02-05T06:07:23.107Z,104595.28
2023-02-05T06:09:51.022Z,104589.81
2023-02-05T06:12:18.902Z,104601.22
2023-02-05T06:14:46.797Z,104606.44
2023-02-05T06:17:14.765Z,104602.63
2023-02-05T06:19:44.077Z,104610.59
2023-02-05T06:22:11.977Z,104611.22
2023-02-05T06:24:39.819Z,104611.06
2023-02-05T06:27:07.710Z,104609.97
2023-02-05T06:29:35.670Z,104608.03
2023-02-05T06:32:03.724Z,104599.06
2023-02-05T06:34:31.754Z,104603.22
2023-02-05T06:37:01.029Z,104604.81
2023-02-05T06:39:29.095Z,104604.47
2023-02-05T06:41:56.975Z,104600.69
2023-02-05T06:44:25.346Z,104607.69
2023-02-05T06:46:53.265Z,104617.47
2023-02-05T06:49:21.223Z,104604.19
2023-02-05T06:51:49.234Z,104610.56
2023-02-05T06:54:18.530Z,104611.53
2023-02-05T06:56:46.425Z,104616.78
2023-02-05T06:59:14.352Z,104614.19
2023-02-05T07:01:42.293Z,104613.22
2023-02-05T07:04:10.227Z,104623.81
2023-02-05T07:06:38.155Z,104614.88
2023-02-05T07:09:06.021Z,104611.22
2023-02-05T07:11:35.264Z,104627.97
2023-02-05T07:14:03.209Z,104634.00
2023-02-05T07:16:31.107Z,104641.91
2023-02-05T07:18:59.119Z,104637.38
2023-02-05T07:21:26.984Z,104645.16
2023-02-05T07:23:54.873Z,104654.66
2023-02-05T07:26:23.842Z,104657.16
2023-02-05T07:28:53.140Z,104667.72
2023-02-05T07:31:21.148Z,104668.38
2023-02-05T07:33:49.121Z,104672.78
2023-02-05T07:36:18.362Z,104674.50
2023-02-05T07:38:46.675Z,104677.94
2023-02-05T07:41:15.413Z,104680.41
2023-02-05T07:43:43.393Z,104688.19
2023-02-05T07:46:13.536Z,104692.47
2023-02-05T07:48:41.466Z,104690.56
2023-02-05T07:51:09.331Z,104685.25
2023-02-05T07:53:37.193Z,104686.09
2023-02-05T07:56:05.361Z,104683.44
2023-02-05T07:58:33.341Z,104688.72
2023-02-05T08:01:02.332Z,104688.72
2023-02-05T08:03:31.911Z,104701.94
2023-02-05T08:05:59.860Z,104684.94
2023-02-05T08:08:27.766Z,104692.34
2023-02-05T08:10:59.169Z,104696.94
2023-02-05T08:13:27.175Z,104697.84
2023-02-05T08:15:55.464Z,104684.53
2023-02-05T08:18:23.549Z,104680.09
2023-02-05T08:20:54.553Z,104689.94
2023-02-05T08:23:22.427Z,104698.78
2023-02-05T08:25:53.932Z,104695.28
2023-02-05T08:28:21.864Z,104711.28
2023-02-05T08:30:49.868Z,104705.06
2023-02-05T08:33:17.936Z,104706.91
2023-02-05T08:35:45.839Z,104706.09
2023-02-05T08:38:15.042Z,104706.13
2023-02-05T08:40:42.925Z,104706.09
2023-02-05T08:43:10.890Z,104708.78
2023-02-05T08:45:39.118Z,104707.91
2023-02-05T08:48:07.061Z,104716.97
2023-02-05T08:50:35.000Z,104712.63
2023-02-05T08:53:02.859Z,104708.94
2023-02-05T08:55:32.827Z,104705.41
2023-02-05T08:58:00.850Z,104704.66
2023-02-05T09:00:28.778Z,104706.69
2023-02-05T09:02:56.690Z,104704.34
2023-02-05T09:05:24.599Z,104687.69
2023-02-05T09:07:52.535Z,104701.38
2023-02-05T09:10:20.535Z,104691.06
2023-02-05T09:12:49.905Z,104691.44
2023-02-05T09:15:18.056Z,104689.91
2023-02-05T09:17:46.337Z,104694.53
2023-02-05T09:20:14.207Z,104690.41
2023-02-05T09:22:42.129Z,104683.53
2023-02-05T09:25:10.355Z,104696.22
2023-02-05T09:27:38.740Z,104692.91
2023-02-05T09:30:08.999Z,104710.00
2023-02-05T09:32:36.914Z,104707.56
2023-02-05T09:35:04.954Z,104713.06
2023-02-05T09:37:32.853Z,104723.19
2023-02-05T09:42:53.708Z,104715.69
2023-02-05T09:45:35.574Z,104701.59
2023-02-05T09:48:12.199Z,104707.16
2023-02-05T09:50:41.420Z,104732.28
2023-02-05T09:53:13.013Z,104721.81
2023-02-05T09:55:44.730Z,104726.47
2023-02-05T09:58:14.155Z,104724.03
2023-02-05T10:00:46.584Z,104713.59
2023-02-05T10:03:20.656Z,104710.13
2023-02-05T10:05:51.636Z,104720.03
2023-02-05T10:08:20.672Z,104731.75
2023-02-05T10:10:49.517Z,104718.44
2023-02-05T10:13:33.575Z,104733.88
2023-02-05T10:16:20.066Z,104727.78
2023-02-05T10:18:55.454Z,104732.38
2023-02-05T10:21:35.867Z,104720.94
2023-02-05T10:24:14.003Z,104715.84
2023-02-05T10:26:44.312Z,104723.94
2023-02-05T10:29:23.361Z,104727.56
2023-02-05T10:31:57.379Z,104717.00
2023-02-05T10:34:33.565Z,104718.91
2023-02-05T10:37:01.562Z,104710.13
2023-02-05T10:39:30.786Z,104711.94
2023-02-05T10:42:00.218Z,104714.75
2023-02-05T10:44:30.089Z,104707.69
2023-02-05T10:47:03.641Z,104706.03
2023-02-05T10:49:38.348Z,104710.50
2023-02-05T10:52:06.295Z,104710.69
2023-02-05T10:54:34.789Z,104714.28
2023-02-05T10:57:02.682Z,104713.50
2023-02-05T10:59:31.324Z,104720.00
2023-02-05T11:02:04.061Z,104719.56
2023-02-05T11:04:35.274Z,104710.31
2023-02-05T11:07:06.204Z,104720.81
2023-02-05T11:09:35.321Z,104723.97
2023-02-05T11:12:04.260Z,104720.16
2023-02-05T11:14:36.420Z,104706.38
2023-02-05T11:17:10.094Z,104708.47
2023-02-05T11:19:38.147Z,104715.78
2023-02-05T11:22:06.470Z,104724.81
2023-02-05T11:24:36.137Z,104716.13
2023-02-05T11:27:30.508Z,104694.00
2023-02-05T11:30:00.018Z,104699.41
2023-02-05T11:32:39.130Z,104695.88
2023-02-05T11:35:17.375Z,104707.53
2023-02-05T11:37:45.276Z,104698.59
2023-02-05T11:40:20.768Z,104694.19
2023-02-05T11:42:49.894Z,104692.50
2023-02-05T11:45:20.892Z,104688.94
2023-02-05T11:47:50.181Z,104696.06
2023-02-05T11:50:23.108Z,104710.38
2023-02-05T11:52:50.991Z,104698.72
2023-02-05T11:55:25.728Z,104667.47
2023-02-05T11:57:59.654Z,104683.50
2023-02-05T12:00:28.340Z,104685.31
2023-02-05T12:03:11.485Z,104682.69
2023-02-05T12:05:41.325Z,104685.31
2023-02-05T12:08:12.298Z,104693.34
2023-02-05T12:10:43.513Z,104679.91
2023-02-05T12:13:16.793Z,104671.88
2023-02-05T12:15:48.037Z,104681.72
2023-02-05T12:18:23.122Z,104671.03
2023-02-05T12:20:52.505Z,104686.19
2023-02-05T12:23:31.588Z,104688.84
2023-02-05T12:26:35.061Z,104698.69
2023-02-05T12:29:09.664Z,104693.38
2023-02-05T12:31:46.769Z,104672.72
2023-02-05T12:34:24.402Z,104663.72
2023-02-05T12:37:07.785Z,104671.66
2023-02-05T12:39:46.272Z,104656.31
2023-02-05T12:42:26.519Z,104627.66
2023-02-05T12:45:01.095Z,104648.06
2023-02-05T12:47:38.051Z,104631.81
2023-02-05T12:50:13.753Z,104646.75
2023-02-05T12:52:56.073Z,104647.44
2023-02-05T12:55:30.872Z,104656.47
2023-02-05T12:58:00.009Z,104638.72
2023-02-05T13:00:29.779Z,104654.00
2023-02-05T13:03:01.918Z,104661.22
2023-02-05T13:05:33.069Z,104662.97
2023-02-05T13:08:03.091Z,104659.19
2023-02-05T13:10:35.411Z,104659.88
2023-02-05T13:13:05.449Z,104653.31
2023-02-05T13:15:35.991Z,104660.06
2023-02-05T13:18:07.176Z,104651.63
2023-02-05T13:20:55.289Z,104637.75
2023-02-05T13:23:37.044Z,104645.47
2023-02-05T13:26:22.416Z,104636.28
2023-02-05T13:28:53.048Z,104621.97
2023-02-05T13:31:24.287Z,104640.72
2023-02-05T13:33:52.840Z,104646.78
2023-02-05T13:37:03.062Z,104630.28
2023-02-05T13:40:06.101Z,104621.34
2023-02-05T13:42:53.639Z,104624.13
2023-02-05T13:45:33.439Z,104620.13
2023-02-05T13:48:26.403Z,104607.75
2023-02-05T13:51:33.626Z,104588.53
2023-02-05T13:54:12.298Z,104596.44
2023-02-05T13:56:48.942Z,104605.31
2023-02-05T13:59:18.405Z,104593.78
2023-02-05T14:01:51.496Z,104585.19
2023-02-05T14:04:21.922Z,104576.72
2023-02-05T14:06:56.573Z,104574.69
2023-02-05T14:09:25.964Z,104576.03
2023-02-05T14:11:57.986Z,104569.56
2023-02-05T14:14:31.089Z,104568.16
2023-02-05T14:16:59.592Z,104550.63
2023-02-05T14:19:56.000Z,104564.75
2023-02-05T14:22:38.329Z,104549.88
2023-02-05T14:25:11.043Z,104552.25
2023-02-05T14:27:55.690Z,104560.78
2023-02-05T14:30:51.889Z,104557.34
2023-02-05T14:33:36.674Z,104565.06
2023-02-05T14:36:39.326Z,104560.53
2023-02-05T14:39:18.863Z,104565.31
2023-02-05T14:41:53.004Z,104533.28
2023-02-05T14:44:24.878Z,104539.69
2023-02-05T14:47:02.419Z,104547.97
2023-02-05T14:49:31.843Z,104549.34
2023-02-05T14:52:00.652Z,104532.50
2023-02-05T14:54:29.313Z,104534.78
2023-02-05T14:57:10.466Z,104536.41
2023-02-05T14:59:40.997Z,104537.91
2023-02-05T15:02:41.988Z,104530.22
2023-02-05T15:05:10.020Z,104461.44
2023-02-05T15:07:37.923Z,104511.81
2023-02-05T15:10:07.835Z,104519.59
2023-02-05T15:12:53.865Z,104502.78
2023-02-05T15:15:33.212Z,104489.00
2023-02-05T15:18:07.508Z,104507.34
2023-02-05T15:20:36.337Z,104502.56
2023-02-05T15:23:18.426Z,104486.94
2023-02-05T15:25:48.415Z,104513.34
2023-02-05T15:28:23.183Z,104513.44
2023-02-05T15:31:22.639Z,104514.25
2023-02-05T15:33:55.782Z,104520.19
2023-02-05T15:36:29.123Z,104527.59
2023-02-05T15:39:04.058Z,104509.91
2023-02-05T15:41:33.197Z,104501.09
2023-02-05T15:44:01.973Z,104504.84
2023-02-05T15:46:32.250Z,104512.06
2023-02-05T15:49:00.311Z,104515.69
2023-02-05T15:51:30.536Z,104530.91
2023-02-05T15:53:59.218Z,104525.50
2023-02-05T15:56:29.496Z,104516.63
2023-02-05T15:59:00.176Z,104528.22
2023-02-05T16:01:31.726Z,104521.94
2023-02-05T16:03:59.664Z,104515.69
2023-02-05T16:06:28.578Z,104524.53
2023-02-05T16:08:57.354Z,104517.38
2023-02-05T16:11:29.880Z,104514.63
2023-02-05T16:14:08.007Z,104527.09
2023-02-05T16:16:38.803Z,104523.50
2023-02-05T16:19:07.462Z,104520.88
2023-02-05T16:21:37.861Z,104529.78
2023-02-05T16:24:07.219Z,104520.03
2023-02-05T16:26:37.290Z,104512.91
2023-02-05T16:29:07.845Z,104531.66
2023-02-05T16:31:39.017Z,104528.13
2023-02-05T16:34:07.262Z,104535.22
2023-02-05T16:36:36.325Z,104528.00
2023-02-05T16:39:05.680Z,104538.72
2023-02-05T16:41:34.596Z,104533.31
2023-02-05T16:44:03.758Z,104533.25
2023-02-05T16:46:31.817Z,104547.41
2023-02-05T16:49:01.653Z,104550.91
2023-02-05T16:51:53.578Z,104549.91
2023-02-05T16:54:33.127Z,104556.06
2023-02-05T16:57:04.544Z,104540.78
2023-02-05T16:59:34.082Z,104547.81
2023-02-05T17:02:03.276Z,104545.00
2023-02-05T17:04:33.659Z,104543.09
2023-02-05T17:07:02.395Z,104543.84
2023-02-05T17:09:34.746Z,104539.22
2023-02-05T17:12:35.867Z,104550.63
2023-02-05T17:15:04.720Z,104552.22
2023-02-05T17:17:32.869Z,104550.28
2023-02-05T17:20:06.372Z,104559.91
2023-02-05T17:22:34.816Z,104554.34
2023-02-05T17:25:05.116Z,104561.25
2023-02-05T17:27:33.895Z,104553.09
2023-02-05T17:30:01.863Z,104552.00
2023-02-05T17:32:30.062Z,104549.16
2023-02-05T17:34:57.961Z,104545.44
2023-02-05T17:37:27.190Z,104556.75
2023-02-05T17:39:56.753Z,104544.88
2023-02-05T17:42:25.647Z,104556.25
2023-02-05T17:44:53.804Z,104550.69
2023-02-05T17:47:21.697Z,104553.13
2023-02-05T17:49:49.543Z,104539.53
2023-02-05T17:52:17.492Z,104540.19
2023-02-05T17:54:46.816Z,104548.97
2023-02-05T17:57:16.993Z,104554.94
2023-02-05T17:59:45.009Z,104489.22
2023-02-05T18:02:13.115Z,104551.69
2023-02-05T18:04:41.136Z,104553.28
2023-02-05T18:07:13.834Z,104546.94
2023-02-05T18:09:41.756Z,104530.81
2023-02-05T18:12:11.690Z,104534.25
2023-02-05T18:14:39.606Z,104534.97
2023-02-05T18:17:07.456Z,104529.53
2023-02-05T18:19:35.861Z,104535.66
2023-02-05T18:22:03.747Z,104543.44
2023-02-05T18:24:31.759Z,104551.19
2023-02-05T18:26:59.622Z,104542.97
2023-02-05T18:29:29.005Z,104546.25
2023-02-05T18:31:56.907Z,104540.75
2023-02-05T18:34:25.029Z,104523.50
2023-02-05T18:36:52.900Z,104514.44
2023-02-05T18:39:20.838Z,104542.06
2023-02-05T18:41:48.710Z,104541.06
2023-02-05T18:44:16.800Z,104539.16
2023-02-05T18:46:46.341Z,104532.84
2023-02-05T18:49:14.388Z,104539.03
2023-02-05T18:51:42.316Z,104544.31
2023-02-05T18:54:10.206Z,104543.47
2023-02-05T18:56:38.235Z,104540.81
2023-02-05T18:59:07.213Z,104553.31
2023-02-05T19:01:36.605Z,104555.06
2023-02-05T19:04:07.082Z,104552.38
2023-02-05T19:06:34.943Z,104560.22
2023-02-05T19:09:03.238Z,104570.72
2023-02-05T19:11:31.614Z,104569.75
2023-02-05T19:14:00.566Z,104576.72
2023-02-05T19:16:29.429Z,104581.03
2023-02-05T19:18:57.872Z,104574.78
2023-02-05T19:21:29.160Z,104571.28
2023-02-05T19:23:57.693Z,104572.94
2023-02-05T19:26:26.422Z,104577.44
2023-02-05T19:28:55.999Z,104572.88
2023-02-05T19:31:24.579Z,104572.59
2023-02-05T19:33:52.512Z,104572.44
2023-02-05T19:36:20.425Z,104591.09
2023-02-05T19:38:49.774Z,104600.69
2023-02-05T19:41:18.549Z,104595.25
2023-02-05T19:43:50.855Z,104588.13
2023-02-05T19:46:19.138Z,104555.84
2023-02-05T19:48:47.139Z,104588.88
2023-02-05T19:51:15.411Z,104581.78
2023-02-05T19:53:45.277Z,104589.72
2023-02-05T19:56:15.238Z,104595.84
2023-02-05T19:58:44.453Z,104589.72
2023-02-05T20:01:13.250Z,104586.19
2023-02-05T20:03:41.294Z,104584.41
2023-02-05T20:06:09.719Z,104567.47
2023-02-05T20:08:37.968Z,104563.63
2023-02-05T20:11:06.171Z,104578.44
2023-02-05T20:13:35.969Z,104570.09
2023-02-05T20:16:04.030Z,104562.91
2023-02-05T20:18:32.040Z,104562.75
2023-02-05T20:21:00.512Z,104572.31
2023-02-05T20:23:28.361Z,104563.41
2023-02-05T20:25:57.649Z,104567.59
2023-02-05T20:28:26.819Z,104569.06
2023-02-05T20:31:13.555Z,104568.88
2023-02-05T20:33:43.080Z,104574.75
2023-02-05T20:36:12.092Z,104573.66
2023-02-05T20:38:40.940Z,104571.69
2023-02-05T20:41:12.548Z,104573.28
2023-02-05T20:43:40.518Z,104558.88
2023-02-05T20:46:10.951Z,104556.13
2023-02-05T20:48:40.444Z,104548.09
2023-02-05T20:51:09.062Z,104548.78
2023-02-05T20:53:37.057Z,104549.50
2023-02-05T20:56:05.282Z,104547.66
2023-02-05T20:58:33.243Z,104530.50
2023-02-05T21:01:06.541Z,104546.34
2023-02-05T21:03:35.835Z,104541.72
2023-02-05T21:06:03.766Z,104534.56
2023-02-05T21:08:31.692Z,104537.06
2023-02-05T21:10:59.573Z,104539.63
2023-02-05T21:13:27.472Z,104542.19
2023-02-05T21:15:55.549Z,104536.88
2023-02-05T21:18:23.658Z,104540.34
2023-02-05T21:20:53.192Z,104557.94
2023-02-05T21:23:21.430Z,104568.44
2023-02-05T21:25:49.355Z,104552.56
2023-02-05T21:28:19.012Z,104561.22
2023-02-05T21:30:51.077Z,104570.84
2023-02-05T21:33:19.024Z,104562.78
2023-02-05T21:35:46.873Z,104558.38
2023-02-05T21:38:16.126Z,104551.28
2023-02-05T21:40:44.051Z,104543.22
2023-02-05T21:43:12.266Z,104540.53
2023-02-05T21:45:40.283Z,104536.94
2023-02-05T21:48:09.048Z,104549.53
2023-02-05T21:50:38.588Z,104540.00
2023-02-05T21:53:06.948Z,104538.28
2023-02-05T21:55:36.254Z,104541.00
2023-02-05T21:58:04.157Z,104531.38
2023-02-05T22:00:32.120Z,104536.66
2023-02-05T22:02:59.995Z,104486.13
2023-02-05T22:05:27.884Z,104531.25
2023-02-05T22:07:55.782Z,104543.50
2023-02-05T22:10:23.650Z,104537.13
2023-02-05T22:12:52.946Z,104533.44
2023-02-05T22:15:20.861Z,104537.78
2023-02-05T22:17:48.759Z,104533.34
2023-02-05T22:20:16.642Z,104536.78
2023-02-05T22:22:44.559Z,104532.34
2023-02-05T22:25:12.528Z,104535.84
2023-02-05T22:27:40.489Z,104523.41
2023-02-05T22:30:11.359Z,104525.09
2023-02-05T22:32:39.267Z,104528.47
2023-02-05T22:35:07.835Z,104522.09
2023-02-05T22:37:35.971Z,104517.47
2023-02-05T22:40:03.866Z,104518.25
2023-02-05T22:42:31.707Z,104513.81
2023-02-05T22:44:59.618Z,104513.81
2023-02-05T22:47:29.235Z,104507.63
2023-02-05T22:49:57.108Z,104496.78
2023-02-05T22:52:26.251Z,104503.13
2023-02-05T22:54:54.107Z,104504.09
2023-02-05T22:57:22.027Z,104495.28
2023-02-05T22:59:49.929Z,104494.22
2023-02-05T23:02:17.806Z,104486.13
2023-02-05T23:04:47.040Z,104482.44
2023-02-05T23:07:14.935Z,104477.81
2023-02-05T23:09:42.871Z,104485.66
2023-02-05T23:12:11.431Z,104491.91
2023-02-05T23:14:39.375Z,104491.06
2023-02-05T23:17:07.251Z,104494.84
2023-02-05T23:19:35.107Z,104494.88
2023-02-05T23:22:09.648Z,104485.34
2023-02-05T23:24:37.748Z,104484.50
2023-02-05T23:27:05.777Z,104489.72
2023-02-05T23:29:33.688Z,104488.59
2023-02-05T23:32:01.537Z,104483.94
2023-02-05T23:34:31.983Z,104495.94
2023-02-05T23:37:00.054Z,104496.47
2023-02-05T23:39:29.327Z,104494.34
2023-02-05T23:41:57.212Z,104478.94
2023-02-05T23:44:25.105Z,104473.25
2023-02-05T23:46:53.030Z,104475.53
2023-02-05T23:49:22.028Z,104473.53
2023-02-05T23:51:50.168Z,104473.38
2023-02-05T23:54:18.103Z,104467.97
2023-02-05T23:56:47.402Z,104474.91
2023-02-05T23:59:15.500Z,104471.31
